37.3°F
Current conditions from King Hill
Updated every 5 minutes
 
  Friday October 31, 2014

Observations for Westford

Westford

44° 37' 39"N, 73° 02' 29"W, Elevation 850 ft.
Eastern Time

Hourly observations for the last 72 hours

Date Time Temperature (F) Humi-
dity

(%)
Wind
(mph)
Pressure Rain (in)
Air Dew 6 Hour 1 Hr 3 Hr 6 Hr Day
Alt
(in)
Sea
Level

(mb)
Max Min
31 21:00 37.3 29.4 73 N 0 G 5 30.01 1016.4 0.00
31 20:00 38.2 29.3 49.3 38.2 70 N 0 G 8 30.02 1016.6 0.00
31 19:00 39.1 29.8 69 NE 1 G 7 30.01 1016.4 0.00
31 18:00 40.2 31.2 70 ENE 0 G 7 29.99 1015.7 0.00
31 17:00 42.8 32.2 66 NNW 0 G 3 29.99 1015.5 0.00
31 16:00 45.2 33.4 63 N 0 G 10 29.98 1015.3 0.00
31 15:00 48.9 33.9 56 NNW 0 G 8 29.97 1015.0 0.00
31 14:00 48.1 33.6 48.1 31.3 57 NNE 1 G 7 29.99 1015.6 0.00
31 13:00 46.4 34.1 62 NNW 0 G 2 29.99 1015.7 0.00
31 12:00 44.8 34.1 66 NNE 0 G 2 30.00 1016.1 0.00
31 11:00 44.1 35.3 71 NNE 0 G 4 30.02 1016.6 0.00
31 10:00 39.8 34.8 82 Calm 30.02 1016.7 0.00
31 09:00 35.4 34.1 95 Calm 30.03 1017.0 0.00
31 08:00 31.3 30.0 37.6 31.1 95 Calm 30.02 1016.6 0.00
31 07:00 31.3 29.8 94 Calm 30.00 1016.0 0.00
31 06:00 32.4 30.3 92 Calm 30.00 1016.0 0.00
31 05:00 33.8 30.6 88 Calm 29.99 1015.5 0.00
31 04:00 35.9 32.4 87 Calm 29.98 1015.2 0.00
31 03:00 37.0 34.3 90 Calm 29.98 1015.1 0.00
31 02:00 37.6 33.8 41.2 37.6 86 Calm 29.98 1015.2 0.00
31 01:00 38.4 33.1 81 Calm 29.97 1015.0 0.00
31 00:00 38.8 33.2 80 Calm 29.97 1014.9 0.00
30 23:00 39.4 34.4 82 Calm 29.98 1015.1 0.00
30 22:00 40.1 35.1 82 Calm 29.98 1015.2 0.00
30 21:00 40.7 34.7 79 Calm 29.98 1015.1 0.00
30 20:00 41.2 33.5 47.7 41.1 74 WNW 0 G 2 29.97 1015.0 0.00
30 19:00 41.3 34.0 75 NW 2 G 8 29.97 1015.0 0.00
30 18:00 41.9 34.9 76 N 0 G 2 29.95 1014.4 0.00
30 17:00 43.2 34.4 71 WNW 2 G 9 29.94 1013.9 0.00
30 16:00 45.1 35.5 69 NW 0 G 7 29.92 1013.2 0.00
30 15:00 46.1 36.1 68 NW 1 G 7 29.92 1013.1 0.00
30 14:00 46.0 35.3 47.1 42.1 66 NW 1 G 7 29.92 1013.1 0.00
30 13:00 45.2 36.0 70 WNW 0 G 9 29.92 1013.3 0.00
30 12:00 46.5 38.0 72 NNW 1 G 5 29.92 1013.3 0.00
30 11:00 43.4 37.0 78 NNW 2 G 9 29.93 1013.5 0.00
30 10:00 44.7 38.6 79 NW 4 G 10 29.92 1013.1 0.00
30 09:00 42.7 38.8 86 NW 1 G 8 29.91 1012.7 0.00
30 08:00 42.6 39.6 45.8 42.4 89 NW 1 G 8 29.88 1012.0 0.00
30 07:00 43.0 40.0 89 NNW 0 G 8 29.86 1011.1 0.00
30 06:00 44.3 40.1 85 W 1 G 5 29.84 1010.5 0.00
30 05:00 44.6 40.1 84 W 1 G 6 29.82 1010.0 0.00
30 04:00 45.4 40.2 82 W 0 G 4 29.81 1009.7 0.00
30 03:00 45.0 39.8 82 SW 1 G 7 29.81 1009.4 0.00
30 02:00 45.8 40.0 46.3 41.0 80 SW 0 G 4 29.81 1009.3 0.00
30 01:00 45.9 39.8 79 SW 0 G 6 29.80 1009.3 0.00
30 00:00 45.1 39.0 79 SSW 1 G 4 29.80 1009.2 0.18
29 23:00 45.0 38.9 79 SSW 0 G 5 29.81 1009.3 0.18
29 22:00 42.7 37.9 83 SW 0 G 2 29.81 1009.4 0.18
29 21:00 43.2 36.8 78 Calm 29.81 1009.3 0.18
29 20:00 46.1 37.6 53.9 45.9 72 WSW 2 G 7 29.80 1009.2 0.18
29 19:00 47.8 37.4 67 W 1 G 7 29.79 1008.9 0.18
29 18:00 49.6 37.9 64 W 2 G 12 29.76 1008.0 0.18
29 17:00 50.2 37.3 61 W 2 G 10 29.77 1008.1 0.18
29 16:00 51.5 41.3 68 W 2 G 11 29.76 1007.9 0.18
29 15:00 53.2 41.7 65 W 2 G 11 29.76 1007.8 0.18
29 14:00 53.9 42.0 56.9 53.4 64 WNW 7 G 19 29.77 1008.1 0.18
29 13:00 54.9 45.3 70 W 3 G 23 29.77 1008.0 0.18
29 12:00 55.1 49.4 81 WNW 3 G 10 29.78 1008.5 0.18
29 11:00 56.7 51.6 83 WSW 3 G 11 29.76 1008.0 0.18
29 10:00 54.9 54.1 97 Calm 29.75 1007.7 0.18
29 09:00 53.8 52.7 96 Calm 29.76 1007.8 0.18
29 08:00 53.4 52.3 55.1 52.8 96 Calm 29.75 1007.5 0.12 0.18
29 07:00 52.9 51.8 96 Calm 29.74 1007.2 0.18
29 06:00 53.5 52.4 96 Calm 29.75 1007.4 0.18
29 05:00 54.5 52.5 93 SSW 0 G 6 29.75 1007.4 0.12 0.18
29 04:00 54.7 53.3 95 S 0 G 4 29.75 1007.3 0.02 0.18
29 03:00 54.5 53.1 95 SSW 2 G 4 29.74 1007.2 0.10 0.16
29 02:00 55.0 52.7 58.0 54.4 92 Calm 29.75 1007.5 0.04 0.07 0.07 0.06
29 01:00 55.2 51.7 88 S 2 G 5 29.76 1007.8 0.02 0.02
29 00:00 56.5 51.7 84 S 2 G 7 29.76 1008.0 0.01 0.04
28 23:00 58.0 50.1 75 S 1 G 9 29.77 1008.3 0.03
28 22:00 55.3 48.9 79 Calm 29.77 1008.3 0.03

Data generated by WxSolution Version 1.8.7.2, Build 2014.02.15.


 
 
Current Radar Loop:

Copyright © WestfordWeather.net 2007-2014. All rights reserved.